• Join FlightAware (Why Join?)
  • Login
  • US Flag 
09:22AM EST


 

Airport Tracker/Info


-or-


 

Live Flight TrackerFlight Track Log ✈ OPT732 ✈ 04-May-2013 ✈ KPIE - KLGA

Flight Track Log - Related Links

Times and Time Zones

All times are in EDT time to prevent confusion due to time zone crossing. See the OPT732 flight status page for this flight to view local times or setup timezone preferences in your user account.

Time Position Orientation Groundspeed Altitude Reporting Facility
EDT Latitude Longitude Course Direction KTS MPH feet Rate Location/Type
08:38PM 27.9333 -82.7000 North 177 204 1,000  Level Tampa TRACON
08:39PM 27.9833 -82.7000 360° North 223 257 3,900 3,480 Climbing Tampa TRACON
08:40PM 28.0500 -82.7167 348° North 265 305 7,700 2,760 Climbing Tampa TRACON
08:42PM 28.2122 -82.6758 13° North 311 358 12,300 2,280 Climbing Jacksonville Center
08:43PM 28.3022 -82.6803 358° North 316 364 14,700 2,280 Climbing Jacksonville Center
08:44PM 28.6526 -82.6401 North  Level FlightAware Approximate
08:44PM 28.3981 -82.6825 359° North 322 371 16,900  Level Jacksonville Center
08:45PM 28.4961 -82.6894 356° North 335 386 18,900 2,100 Climbing Jacksonville Center
08:46PM 28.5983 -82.6964 357° North 355 409 21,200 2,040 Climbing Jacksonville Center
08:47PM 28.7008 -82.7008 358° North 362 417 23,000 1,920 Climbing Jacksonville Center
08:48PM 28.8114 -82.7100 356° North 374 430 25,100 1,860 Climbing Jacksonville Center
08:49PM 28.9242 -82.7169 357° North 393 452 26,800 1,800 Climbing Jacksonville Center
08:50PM 29.0408 -82.7264 356° North 406 467 28,700 1,800 Climbing Jacksonville Center
08:51PM 29.1619 -82.7381 355° North 420 483 30,500 1,680 Climbing Jacksonville Center
08:52PM 29.2872 -82.7450 357° North 431 496 32,100 1,500 Climbing Jacksonville Center
08:53PM 29.4167 -82.7592 355° North 451 519 33,600 1,320 Climbing Jacksonville Center
08:54PM 29.5650 -82.8019 346° North 477 549 34,800 1,140 Climbing Jacksonville Center
08:55PM 29.6967 -82.8328 349° North 483 556 35,900 1,260 Climbing Jacksonville Center
08:56PM 29.8281 -82.8639 348° North 489 563 37,400 1,500 Climbing Jacksonville Center
08:57PM 29.9597 -82.8925 349° North 484 557 39,000 1,620 Climbing Jacksonville Center
08:58PM 30.0933 -82.8925 360° North 478 550 40,700 1,500 Climbing Jacksonville Center
08:59PM 30.2164 -82.8181 28° Northeast 468 539 42,000 1,140 Climbing Jacksonville Center
09:00PM 30.3353 -82.7361 31° Northeast 476 548 43,000 600 Climbing Jacksonville Center
09:01PM 30.4564 -82.6492 32° Northeast 487 560 43,300 300 Climbing Jacksonville Center
09:02PM 30.5750 -82.5692 30° Northeast 499 574 43,600 300 Climbing Jacksonville Center
09:03PM 30.7003 -82.4842 30° Northeast 504 580 43,900 240 Climbing Jacksonville Center
09:04PM 30.8064 -82.4089 31° Northeast 509 586 44,100 240 Climbing Jacksonville Center
09:05PM 30.9292 -82.3186 32° Northeast 509 586 44,400 300 Climbing Jacksonville Center
09:06PM 31.0561 -82.2281 31° Northeast 514 592 44,700 300 Climbing Jacksonville Center
09:07PM 31.1808 -82.1397 31° Northeast 514 592 45,000 120 Climbing Jacksonville Center
09:08PM 31.3056 -82.0561 30° Northeast 514 592 45,000  Level Jacksonville Center
09:09PM 31.4450 -81.9600 30° Northeast 519 597 45,000  Level Jacksonville Center
09:10PM 31.5717 -81.8758 30° Northeast 519 597 45,000  Level Jacksonville Center
09:11PM 31.6878 -81.7964 30° Northeast 525 604 45,000  Level Jacksonville Center
09:12PM 31.8247 -81.7017 30° Northeast 520 598 45,000  Level Jacksonville Center
09:13PM 31.9514 -81.6144 30° Northeast 520 598 45,000  Level Jacksonville Center
09:14PM 32.0633 -81.5394 30° Northeast 520 598 45,000  Level Jacksonville Center
09:15PM 32.2042 -81.4489 29° Northeast 521 600 45,000  Level Jacksonville Center
09:16PM 32.3306 -81.3558 32° Northeast 527 606 45,000  Level Jacksonville Center
09:17PM 32.4444 -81.2803 29° Northeast 527 606 45,000  Level Jacksonville Center
09:18PM 32.5706 -81.1892 31° Northeast 527 606 45,000  Level Jacksonville Center
09:19PM 32.7111 -81.0928 30° Northeast 521 600 45,000  Level Jacksonville Center
09:20PM 32.8350 -81.0061 30° Northeast 521 600 45,000  Level Jacksonville Center
09:21PM 32.9589 -80.9169 31° Northeast 521 600 45,000  Level Jacksonville Center
09:22PM 33.0850 -80.8322 29° Northeast 521 600 45,000  Level Jacksonville Center
09:23PM 33.2086 -80.7450 31° Northeast 521 600 45,000  Level Jacksonville Center
09:24PM 33.3344 -80.6575 30° Northeast 521 600 45,000  Level Jacksonville Center
09:25PM 33.4603 -80.5672 31° Northeast 521 600 45,000  Level Jacksonville Center
09:26PM 33.5858 -80.4742 32° Northeast 526 605 45,000  Level Jacksonville Center
09:27PM 33.7114 -80.3858 30° Northeast 521 600 45,000  Level Jacksonville Center
09:28PM 33.8347 -80.2972 31° Northeast 521 600 45,000  Level Jacksonville Center
09:29PM 33.9622 -80.2033 31° Northeast 521 600 45,000  Level Jacksonville Center
09:30PM 34.0897 -80.1142 30° Northeast 527 606 45,000  Level Jacksonville Center
09:31PM 34.2128 -80.0200 32° Northeast 522 601 45,000  Level Jacksonville Center
09:33PM 34.4572 -79.8436 31° Northeast 518 596 45,000  Level Washington Center
09:34PM 34.5836 -79.7492 32° Northeast 523 602 45,000  Level Washington Center
09:35PM 34.7058 -79.6519 33° Northeast 523 602 45,000  Level Washington Center
09:36PM 34.8242 -79.5464 36° Northeast 523 602 45,000  Level Washington Center
09:37PM 34.9464 -79.4461 34° Northeast 528 608 45,000  Level Washington Center
09:38PM 35.0644 -79.3425 36° Northeast 528 608 45,000  Level Washington Center
09:39PM 35.1867 -79.2389 35° Northeast 528 608 45,000  Level Washington Center
09:40PM 35.3067 -79.1350 35° Northeast 528 608 45,000  Level Washington Center
09:41PM 35.4244 -79.0331 35° Northeast 528 608 45,000  Level Washington Center
09:42PM 35.5442 -78.9283 35° Northeast 523 602 45,000  Level Washington Center
09:43PM 35.6639 -78.8261 35° Northeast 523 602 45,000  Level Washington Center
09:44PM 35.7922 -78.7083 37° Northeast 523 602 45,000  Level Washington Center
09:45PM 35.9094 -78.6028 36° Northeast 523 602 45,000  Level Washington Center
09:46PM 36.0292 -78.4969 36° Northeast 523 602 45,000  Level Washington Center
09:47PM 36.1442 -78.3931 36° Northeast 517 595 45,000  Level Washington Center
09:48PM 36.2633 -78.2892 35° Northeast 517 595 45,000  Level Washington Center
09:49PM 36.3806 -78.1822 36° Northeast 517 595 45,000  Level Washington Center
09:50PM 36.4828 -78.0875 37° Northeast 508 585 45,000  Level Washington Center
09:51PM 36.6017 -77.9775 37° Northeast 508 585 45,000  Level Washington Center
09:52PM 36.7186 -77.8747 35° Northeast 513 590 45,000  Level Washington Center
09:53PM 36.8311 -77.7664 38° Northeast 513 590 45,000  Level Washington Center
09:54PM 36.9478 -77.6631 35° Northeast 508 585 45,000  Level Washington Center
09:55PM 37.0642 -77.5544 37° Northeast 508 585 45,000  Level Washington Center
09:56PM 37.1786 -77.4478 37° Northeast 508 585 45,000  Level Washington Center
09:57PM 37.2928 -77.3436 36° Northeast 508 585 45,000  Level Washington Center
09:58PM 37.4069 -77.2389 36° Northeast 508 585 45,000  Level Washington Center
09:59PM 37.5253 -77.1289 36° Northeast 514 592 45,000  Level Washington Center
10:00PM 37.6369 -77.0211 37° Northeast 514 592 45,000  Level Washington Center
10:01PM 37.7508 -76.9128 37° Northeast 514 592 45,000  Level Washington Center
10:02PM 37.8625 -76.8044 37° Northeast 509 586 45,000  Level Washington Center
10:03PM 37.9742 -76.6981 37° Northeast 509 586 45,000  Level Washington Center
10:04PM 38.0878 -76.5917 36° Northeast 509 586 45,000  Level Washington Center
10:05PM 38.1992 -76.4847 37° Northeast 509 586 45,000  Level Washington Center
10:06PM 38.3228 -76.3697 36° Northeast 514 592 45,000  Level Washington Center
10:07PM 38.4361 -76.2622 37° Northeast 503 579 45,000  Level Washington Center
10:08PM 38.5261 -76.1783 36° Northeast 503 579 45,000 -840 Level Washington Center
10:09PM 38.6539 -76.0650 35° Northeast 497 572 43,400 -1,920 Descending Washington Center
10:10PM 38.7586 -75.9617 38° Northeast 491 565 41,200 -2,220 Descending Washington Center
10:11PM 38.8672 -75.8608 36° Northeast 486 559 39,000 -2,220 Descending Washington Center
10:12PM 38.9758 -75.7597 36° Northeast 480 552 36,800 -2,280 Descending Washington Center
10:13PM 39.0842 -75.6558 37° Northeast 480 552 34,500 -2,280 Descending Washington Center
10:14PM 39.1967 -75.5486 36° Northeast 486 559 32,300 -3,000 Descending Washington Center
10:15PM 39.3050 -75.4522 35° Northeast 486 559 28,500 -4,140 Descending Washington Center
10:16PM 39.4028 -75.3658 34° Northeast 452 520 24,200 -4,200 Descending Washington Center
10:17PM 39.4986 -75.2794 35° Northeast 434 499 20,100 -3,300 Descending Washington Center
10:18PM 39.5858 -75.1983 36° Northeast 405 466 17,600 -1,620 Descending Washington Center
10:19PM 39.6667 -75.1253 35° Northeast 363 418 17,000 -300 Descending Washington Center
10:20PM 39.7622 -75.0408 34° Northeast 363 418 17,000 -240 Level Washington Center
10:21PM 39.8453 -74.9700 33° Northeast 384 442 16,600 -1,260 Descending Washington Center
10:22PM 39.9386 -74.8772 37° Northeast 389 448 14,500 -2,100 Descending Washington Center
10:23PM 40.0086 -74.7761 48° Northeast 384 442 12,500 -1,860 Descending Washington Center
10:25PM 40.1167 -74.6333 45° Northeast 355 409 10,100 -1,020 Descending New York TRACON
10:26PM 40.1833 -74.5333 49° Northeast 353 406 10,100  Level New York TRACON
10:27PM 40.2500 -74.4500 44° Northeast 360 414 10,100  Level New York TRACON
10:28PM 40.3333 -74.3667 37° Northeast 345 397 10,100 -360 Level New York TRACON
10:29PM 40.3833 -74.3000 45° Northeast 267 307 9,400 -1,020 Descending New York TRACON
10:30PM 40.4333 -74.2500 37° Northeast 255 293 8,100 -1,140 Descending New York TRACON
10:31PM 40.5000 -74.1833 37° Northeast 256 295 7,100 -900 Descending New York TRACON
10:32PM 40.5500 -74.1333 37° Northeast 247 284 6,400 -1,320 Descending New York TRACON
10:33PM 40.6167 -74.1000 21° North 241 277 4,600 -1,620 Descending New York TRACON
10:34PM 40.6833 -74.0500 30° Northeast 232 267 3,100 -720 Descending New York TRACON
10:35PM 40.7333 -74.0167 27° Northeast 220 253 3,100  Level New York TRACON
10:36PM 40.7833 -74.0000 14° North 213 245 3,100 -300 Level New York TRACON
10:37PM 40.8333 -73.9667 27° Northeast 209 241 2,600 -540 Descending New York TRACON
10:38PM 40.8500 -73.9000 72° East 170 196 2,100 -540 Descending New York TRACON
10:39PM 40.8333 -73.8500 114° Southeast 154 177 1,600 -780 Descending New York TRACON
10:40PM 40.8000 -73.8500 180° South 135 155 600 -1,020 Descending New York TRACON